Time,TemperatureF,DewpointF,PressureIn,WindDirection,WindDirectionDegrees,WindSpeedMPH,WindSpeedGustMPH,Humidity,HourlyPrecipIn,Conditions,Clouds,dailyrainin,SoftwareType,DateUTC
2014-10-23 00:06:00,48.7,23.6,0.00,East,99,0.0,3.1,37,0.00,,---,0.00,VWS V15.00,2014-10-23 04:06:00,
2014-10-23 00:12:00,48.9,23.8,0.00,SE,138,0.0,0.0,37,0.00,,---,0.00,VWS V15.00,2014-10-23 04:12:00,
2014-10-23 00:18:00,48.7,23.6,0.00,SSE,155,2.2,2.7,37,0.00,,---,0.00,VWS V15.00,2014-10-23 04:18:00,
2014-10-23 00:24:00,48.9,23.8,0.00,SE,139,2.7,2.7,37,0.00,,---,0.00,VWS V15.00,2014-10-23 04:24:00,
2014-10-23 00:29:00,48.9,23.8,0.00,SE,141,0.0,0.0,37,0.00,,---,0.00,VWS V15.00,2014-10-23 04:29:00,
2014-10-23 00:58:00,48.7,23.6,0.00,SE,133,0.0,3.1,37,0.00,,---,0.00,VWS V15.00,2014-10-23 04:58:00,
2014-10-23 01:03:00,48.7,23.6,0.00,SSE,163,3.1,3.1,37,0.00,,---,0.00,VWS V15.00,2014-10-23 05:03:00,
2014-10-23 01:09:00,48.6,23.5,0.00,SSE,154,0.0,0.0,37,0.00,,---,0.00,VWS V15.00,2014-10-23 05:09:00,
2014-10-23 01:15:00,48.4,23.3,0.00,SE,136,0.0,0.0,37,0.00,,---,0.00,VWS V15.00,2014-10-23 05:15:00,
2014-10-23 01:20:00,48.2,23.2,0.00,SSE,154,0.0,0.0,37,0.00,,---,0.00,VWS V15.00,2014-10-23 05:20:00,
2014-10-23 01:25:00,48.4,23.3,0.00,ESE,123,0.0,2.2,37,0.00,,---,0.00,VWS V15.00,2014-10-23 05:25:00,
2014-10-23 01:31:00,48.7,23.6,0.00,SE,138,2.7,2.7,37,0.00,,---,0.00,VWS V15.00,2014-10-23 05:31:00,
2014-10-23 02:06:00,49.3,24.1,0.00,SSE,155,0.0,3.1,37,0.00,,---,0.00,VWS V15.00,2014-10-23 06:06:00,
2014-10-23 02:12:00,49.1,24.0,0.00,South,171,0.0,2.7,37,0.00,,---,0.00,VWS V15.00,2014-10-23 06:12:00,
2014-10-23 02:17:00,49.1,24.0,0.00,SE,144,0.0,0.0,37,0.00,,---,0.00,VWS V15.00,2014-10-23 06:17:00,
2014-10-23 02:23:00,49.1,24.0,0.00,South,169,3.1,3.1,37,0.00,,---,0.00,VWS V15.00,2014-10-23 06:23:00,
2014-10-23 02:28:00,49.1,24.0,0.00,South,189,2.2,4.0,37,0.00,,---,0.00,VWS V15.00,2014-10-23 06:28:00,
2014-10-23 02:58:00,49.6,24.5,0.00,East,83,0.0,5.4,37,0.00,,---,0.00,VWS V15.00,2014-10-23 06:58:00,
2014-10-23 03:03:00,49.6,24.5,0.00,ESE,113,0.0,0.0,37,0.00,,---,0.00,VWS V15.00,2014-10-23 07:03:00,
2014-10-23 03:08:00,49.6,24.5,0.00,ESE,121,2.7,2.7,37,0.00,,---,0.00,VWS V15.00,2014-10-23 07:08:00,
2014-10-23 03:13:00,49.6,24.5,0.00,NE,43,2.2,2.2,37,0.00,,---,0.00,VWS V15.00,2014-10-23 07:13:00,
2014-10-23 03:19:00,49.6,24.5,0.00,SE,143,0.0,2.2,37,0.00,,---,0.00,VWS V15.00,2014-10-23 07:19:00,
2014-10-23 03:24:00,49.6,24.5,0.00,East,84,0.0,2.7,37,0.00,,---,0.00,VWS V15.00,2014-10-23 07:24:00,
2014-10-23 03:30:00,49.6,24.5,0.00,SE,131,0.0,0.0,37,0.00,,---,0.00,VWS V15.00,2014-10-23 07:30:00,
2014-10-23 04:07:00,50.4,24.4,0.00,ENE,75,2.2,4.9,36,0.00,,---,0.00,VWS V15.00,2014-10-23 08:07:00,
2014-10-23 04:12:00,50.4,24.4,0.00,SSE,155,0.0,0.0,36,0.00,,---,0.00,VWS V15.00,2014-10-23 08:12:00,
2014-10-23 04:18:00,50.4,24.4,0.00,SE,141,0.0,2.7,36,0.00,,---,0.00,VWS V15.00,2014-10-23 08:18:00,
2014-10-23 04:23:00,50.4,24.4,0.00,SE,141,0.0,0.0,36,0.00,,---,0.00,VWS V15.00,2014-10-23 08:23:00,
2014-10-23 04:28:00,50.4,24.4,0.00,SE,143,0.0,0.0,36,0.00,,---,0.00,VWS V15.00,2014-10-23 08:28:00,
2014-10-23 04:58:00,50.7,24.8,0.00,South,177,0.0,3.6,36,0.00,,---,0.00,VWS V15.00,2014-10-23 08:58:00,
2014-10-23 05:03:00,50.9,24.9,0.00,SSE,164,3.6,3.6,36,0.00,,---,0.00,VWS V15.00,2014-10-23 09:03:00,
2014-10-23 05:09:00,51.1,25.1,0.00,SE,140,3.1,4.0,36,0.00,,---,0.00,VWS V15.00,2014-10-23 09:09:00,
2014-10-23 05:15:00,51.1,25.1,0.00,ESE,116,2.7,6.3,36,0.00,,---,0.00,VWS V15.00,2014-10-23 09:15:00,
2014-10-23 05:20:00,51.1,25.1,0.00,ESE,109,0.0,2.2,36,0.00,,---,0.00,VWS V15.00,2014-10-23 09:20:00,
2014-10-23 05:26:00,50.9,24.9,0.00,South,186,0.0,2.7,36,0.00,,---,0.00,VWS V15.00,2014-10-23 09:26:00,
2014-10-23 05:32:00,50.9,24.9,0.00,SE,145,0.0,3.1,36,0.00,,---,0.00,VWS V15.00,2014-10-23 09:32:00,
2014-10-23 06:06:00,51.1,25.1,0.00,SSE,162,2.7,4.0,36,0.00,,---,0.00,VWS V15.00,2014-10-23 10:06:00,
2014-10-23 06:11:00,51.1,25.1,0.00,NE,39,2.7,4.0,36,0.00,,---,0.00,VWS V15.00,2014-10-23 10:11:00,
2014-10-23 06:17:00,51.1,25.1,0.00,SW,229,0.0,3.1,36,0.00,,---,0.00,VWS V15.00,2014-10-23 10:17:00,
2014-10-23 06:22:00,51.1,25.1,0.00,South,174,0.0,0.0,36,0.00,,---,0.00,VWS V15.00,2014-10-23 10:22:00,
2014-10-23 06:27:00,51.1,25.1,0.00,SE,146,2.2,2.7,36,0.00,,---,0.00,VWS V15.00,2014-10-23 10:27:00,
2014-10-23 06:58:00,51.1,25.1,0.00,East,101,0.0,3.6,36,0.00,,---,0.00,VWS V15.00,2014-10-23 10:58:00,
2014-10-23 07:03:00,50.9,24.9,0.00,SSE,167,2.7,4.9,36,0.00,,---,0.00,VWS V15.00,2014-10-23 11:03:00,
2014-10-23 07:08:00,50.9,24.9,0.00,SE,136,0.0,2.2,36,0.00,,---,0.00,VWS V15.00,2014-10-23 11:08:00,
2014-10-23 07:14:00,50.9,24.9,0.00,SSE,150,0.0,0.0,36,0.00,,---,0.00,VWS V15.00,2014-10-23 11:14:00,
2014-10-23 07:19:00,50.9,24.9,0.00,SSE,160,0.0,2.7,36,0.00,,---,0.00,VWS V15.00,2014-10-23 11:19:00,
2014-10-23 07:25:00,50.9,24.9,0.00,South,170,0.0,2.7,36,0.00,,---,0.00,VWS V15.00,2014-10-23 11:25:00,
2014-10-23 07:31:00,50.9,24.9,0.00,SSE,151,2.7,2.7,36,0.00,,---,0.00,VWS V15.00,2014-10-23 11:31:00,
2014-10-23 08:24:00,50.4,24.4,0.00,SSE,148,0.0,5.8,36,0.00,,---,0.00,VWS V15.00,2014-10-23 12:24:00,
2014-10-23 08:29:00,50.5,24.6,0.00,SSE,164,2.2,3.1,36,0.00,,---,0.00,VWS V15.00,2014-10-23 12:29:00,